Time;durP1;ratioP1;P1;durP2;ratioP2;P2;SDS_P1;SDS_P2;PMS_P1;PMS_P2;Temp;Humidity;BMP_temperature;BMP_pressure;BME280_temperature;BME280_humidity;BME280_pressure;Samples;Min_cycle;Max_cycle;Signal;HPM_P1;HPM_P2
2023/05/14 00:01:45;;;;;;;;;;;11.00;99.90;;;;;;5079829;28;19996;-71
2023/05/14 00:04:11;;;;;;;;;;;10.90;99.90;;;;;;5087979;28;20003;-70
2023/05/14 00:06:36;;;;;;;;;;;10.90;99.90;;;;;;5062090;28;20020;-71
2023/05/14 00:09:03;;;;;;;;;;;10.90;99.90;;;;;;5080202;28;20078;-71
2023/05/14 00:11:28;;;;;;;;;;;10.80;99.90;;;;;;5065840;28;19927;-70
2023/05/14 00:13:54;;;;;;;;;;;10.80;99.90;;;;;;5091163;28;19924;-70
2023/05/14 00:16:19;;;;;;;;;;;10.70;99.90;;;;;;5089656;28;19967;-71
2023/05/14 00:18:45;;;;;;;;;;;10.70;99.90;;;;;;5065698;28;20311;-71
2023/05/14 00:21:11;;;;;;;;;;;10.70;99.90;;;;;;5090667;28;19981;-70
2023/05/14 00:23:37;;;;;;;;;;;10.80;99.90;;;;;;5066659;28;19981;-70
2023/05/14 00:26:03;;;;;;;;;;;10.70;99.90;;;;;;5086320;28;19928;-70
2023/05/14 00:28:28;;;;;;;;;;;10.70;99.90;;;;;;5074568;28;19970;-71
2023/05/14 00:30:55;;;;;;;;;;;10.70;99.90;;;;;;5070817;28;19932;-70
2023/05/14 00:33:21;;;;;;;;;;;10.70;99.90;;;;;;5077813;28;19928;-71
2023/05/14 00:35:47;;;;;;;;;;;10.60;99.90;;;;;;5072506;28;20230;-72
2023/05/14 00:38:16;;;;;;;;;;;10.60;99.90;;;;;;5089161;28;19999;-71
2023/05/14 00:40:44;;;;;;;;;;;10.50;99.90;;;;;;5089671;28;19931;-71
2023/05/14 00:43:10;;;;;;;;;;;10.50;99.90;;;;;;5055763;28;19924;-69
2023/05/14 00:45:36;;;;;;;;;;;10.50;99.90;;;;;;5053413;28;20391;-70
2023/05/14 00:48:02;;;;;;;;;;;10.50;99.90;;;;;;5086004;28;20011;-70
2023/05/14 00:50:27;;;;;;;;;;;10.50;99.90;;;;;;5088914;28;19927;-69
2023/05/14 00:52:53;;;;;;;;;;;10.50;99.90;;;;;;5084965;28;19924;-71
2023/05/14 00:55:19;;;;;;;;;;;10.40;99.90;;;;;;5071559;28;19931;-70
2023/05/14 00:57:45;;;;;;;;;;;10.30;99.90;;;;;;5083533;28;20401;-71
2023/05/14 01:00:10;;;;;;;;;;;10.30;99.90;;;;;;5088041;28;20026;-71
2023/05/14 01:02:36;;;;;;;;;;;10.30;99.90;;;;;;5071068;28;20476;-70
2023/05/14 01:05:02;;;;;;;;;;;10.30;99.90;;;;;;5053323;28;19930;-70
2023/05/14 01:07:37;;;;;;;;;;;10.30;99.90;;;;;;5056790;28;19990;-70
2023/05/14 01:10:03;;;;;;;;;;;10.20;99.90;;;;;;5066886;28;19924;-70
2023/05/14 01:12:31;;;;;;;;;;;10.30;99.90;;;;;;5140475;22;20410;-77
2023/05/14 01:14:57;;;;;;;;;;;10.20;99.90;;;;;;5046486;28;19924;-75
2023/05/14 01:17:25;;;;;;;;;;;10.20;99.90;;;;;;5029695;28;19959;-77
2023/05/14 01:19:51;;;;;;;;;;;10.20;99.90;;;;;;5050099;28;19925;-75
2023/05/14 01:22:16;;;;;;;;;;;10.20;99.90;;;;;;5049207;28;20428;-75
2023/05/14 01:24:42;;;;;;;;;;;10.20;99.90;;;;;;5049643;28;20358;-77
2023/05/14 01:27:14;;;;;;;;;;;10.20;99.90;;;;;;5049220;28;20011;-75
2023/05/14 01:29:41;;;;;;;;;;;10.20;99.90;;;;;;5048654;28;19925;-77
2023/05/14 01:32:08;;;;;;;;;;;10.20;99.90;;;;;;5049942;28;20371;-75
2023/05/14 01:34:35;;;;;;;;;;;10.20;99.90;;;;;;5050421;28;20388;-76
2023/05/14 01:37:01;;;;;;;;;;;10.30;99.90;;;;;;5049929;28;20015;-77
2023/05/14 01:39:27;;;;;;;;;;;10.30;99.90;;;;;;5049529;28;19925;-75
2023/05/14 01:41:53;;;;;;;;;;;10.20;99.90;;;;;;5050489;28;19925;-76
2023/05/14 01:44:19;;;;;;;;;;;10.20;99.90;;;;;;5050019;28;19925;-76
2023/05/14 01:46:44;;;;;;;;;;;10.30;99.90;;;;;;5032317;28;20411;-78
2023/05/14 01:49:10;;;;;;;;;;;10.20;99.90;;;;;;5046639;28;19925;-77
2023/05/14 01:51:36;;;;;;;;;;;10.30;99.90;;;;;;5054252;28;19931;-77
2023/05/14 01:54:02;;;;;;;;;;;10.20;99.90;;;;;;5049529;28;19925;-77
2023/05/14 01:56:27;;;;;;;;;;;10.20;99.90;;;;;;5050171;28;19925;-78
2023/05/14 01:58:54;;;;;;;;;;;10.20;99.90;;;;;;5049587;28;19925;-77
2023/05/14 02:01:20;;;;;;;;;;;10.10;99.90;;;;;;5026314;28;19932;-76
2023/05/14 02:03:45;;;;;;;;;;;10.20;99.90;;;;;;5048784;28;20328;-77
2023/05/14 02:06:11;;;;;;;;;;;10.30;99.90;;;;;;5031211;28;19925;-78
2023/05/14 02:08:36;;;;;;;;;;;10.20;99.90;;;;;;5046314;28;19940;-75
2023/05/14 02:11:02;;;;;;;;;;;10.20;99.90;;;;;;5048350;28;19931;-77
2023/05/14 02:13:27;;;;;;;;;;;10.20;99.90;;;;;;5045251;28;19925;-76
2023/05/14 02:15:53;;;;;;;;;;;10.10;99.90;;;;;;5047416;28;19925;-76
2023/05/14 02:18:19;;;;;;;;;;;10.20;99.90;;;;;;5046467;28;19928;-75
2023/05/14 02:20:45;;;;;;;;;;;10.20;99.90;;;;;;5047844;28;19925;-76
2023/05/14 02:23:10;;;;;;;;;;;10.20;99.90;;;;;;5046706;28;19924;-76
2023/05/14 02:25:36;;;;;;;;;;;10.30;99.90;;;;;;5046167;28;19975;-75
2023/05/14 02:28:02;;;;;;;;;;;10.30;99.90;;;;;;5048092;28;20384;-75
2023/05/14 02:30:28;;;;;;;;;;;10.20;99.90;;;;;;5030561;28;20031;-77
2023/05/14 02:32:54;;;;;;;;;;;10.30;99.90;;;;;;5047267;28;19929;-77
2023/05/14 02:35:19;;;;;;;;;;;10.20;99.90;;;;;;5048169;28;20411;-76
2023/05/14 02:37:45;;;;;;;;;;;10.20;99.90;;;;;;5047155;28;20292;-75
2023/05/14 02:40:11;;;;;;;;;;;10.30;99.90;;;;;;5043394;28;20334;-77
2023/05/14 02:42:36;;;;;;;;;;;10.20;99.90;;;;;;5048205;28;19929;-76
2023/05/14 02:45:02;;;;;;;;;;;10.20;99.90;;;;;;5049030;28;20019;-75
2023/05/14 02:47:28;;;;;;;;;;;10.20;99.90;;;;;;5045375;28;19932;-74
2023/05/14 02:49:53;;;;;;;;;;;10.10;99.90;;;;;;5045870;28;19937;-76
2023/05/14 02:52:19;;;;;;;;;;;10.30;99.90;;;;;;5047502;28;19979;-77
2023/05/14 02:54:44;;;;;;;;;;;10.10;99.90;;;;;;5047281;28;19944;-76
2023/05/14 02:57:10;;;;;;;;;;;10.20;99.90;;;;;;5048089;28;20456;-76
2023/05/14 02:59:35;;;;;;;;;;;10.10;99.90;;;;;;5062921;28;20273;-76
2023/05/14 03:02:01;;;;;;;;;;;10.10;99.90;;;;;;5047747;28;19948;-76
2023/05/14 03:04:26;;;;;;;;;;;10.20;99.90;;;;;;5028534;28;19925;-77
2023/05/14 03:06:52;;;;;;;;;;;10.10;99.90;;;;;;5045877;28;19932;-76
2023/05/14 03:09:17;;;;;;;;;;;10.10;99.90;;;;;;5046347;28;19971;-77
2023/05/14 03:11:43;;;;;;;;;;;10.10;99.90;;;;;;5046912;28;19933;-77
2023/05/14 03:14:08;;;;;;;;;;;10.10;99.90;;;;;;5047694;28;19925;-77
2023/05/14 03:16:34;;;;;;;;;;;10.10;99.90;;;;;;5048019;28;19929;-75
2023/05/14 03:19:00;;;;;;;;;;;10.20;99.90;;;;;;5031018;28;20451;-76
2023/05/14 03:21:26;;;;;;;;;;;10.20;99.90;;;;;;5046079;28;19925;-77
2023/05/14 03:23:51;;;;;;;;;;;10.20;99.90;;;;;;5047898;28;19927;-76
2023/05/14 03:26:17;;;;;;;;;;;10.20;99.90;;;;;;5046790;28;19936;-77
2023/05/14 03:28:43;;;;;;;;;;;10.20;99.90;;;;;;5045454;28;20381;-76
2023/05/14 03:31:08;;;;;;;;;;;10.20;99.90;;;;;;5047726;28;20347;-77
2023/05/14 03:33:34;;;;;;;;;;;10.20;99.90;;;;;;5047427;28;20427;-77
2023/05/14 03:36:00;;;;;;;;;;;10.20;99.90;;;;;;5050688;28;19968;-76
2023/05/14 03:38:25;;;;;;;;;;;10.10;99.90;;;;;;5050940;28;19925;-76
2023/05/14 03:40:51;;;;;;;;;;;10.10;99.90;;;;;;5051673;28;19931;-76
2023/05/14 03:43:16;;;;;;;;;;;10.10;99.90;;;;;;5050285;28;19925;-75
2023/05/14 03:45:42;;;;;;;;;;;10.10;99.90;;;;;;5051765;28;20255;-77
2023/05/14 03:48:08;;;;;;;;;;;10.10;99.90;;;;;;5049611;28;20289;-77
2023/05/14 03:50:33;;;;;;;;;;;10.10;99.90;;;;;;5050147;28;19935;-78
2023/05/14 03:52:59;;;;;;;;;;;10.10;99.90;;;;;;5051240;28;19978;-76
2023/05/14 03:55:24;;;;;;;;;;;10.20;99.90;;;;;;5050644;28;20063;-79
2023/05/14 03:57:50;;;;;;;;;;;10.10;99.90;;;;;;5050968;28;19925;-77
2023/05/14 04:00:16;;;;;;;;;;;10.20;99.90;;;;;;5050530;28;19932;-77
2023/05/14 04:02:41;;;;;;;;;;;10.20;99.90;;;;;;5032696;28;20347;-75
2023/05/14 04:05:07;;;;;;;;;;;10.20;99.90;;;;;;5051505;28;20439;-74
2023/05/14 04:07:33;;;;;;;;;;;10.10;99.90;;;;;;5051486;28;20277;-78
2023/05/14 04:09:59;;;;;;;;;;;10.20;99.90;;;;;;5050229;28;19933;-77
2023/05/14 04:12:25;;;;;;;;;;;10.10;99.90;;;;;;5048894;28;19931;-77
2023/05/14 04:14:51;;;;;;;;;;;10.10;99.90;;;;;;5051344;28;19925;-77
2023/05/14 04:17:16;;;;;;;;;;;10.10;99.90;;;;;;5046002;28;20002;-76
2023/05/14 04:19:42;;;;;;;;;;;10.20;99.90;;;;;;5050689;28;19929;-76
2023/05/14 04:22:08;;;;;;;;;;;10.30;99.90;;;;;;5049033;28;19968;-76
2023/05/14 04:24:33;;;;;;;;;;;10.30;99.90;;;;;;5049479;28;19982;-74
2023/05/14 04:26:59;;;;;;;;;;;10.40;99.90;;;;;;5050724;28;19925;-78
2023/05/14 04:29:24;;;;;;;;;;;10.30;99.90;;;;;;5038425;28;19925;-78
2023/05/14 04:31:50;;;;;;;;;;;10.30;99.90;;;;;;5040832;28;19925;-77
2023/05/14 04:34:15;;;;;;;;;;;10.30;99.90;;;;;;5046487;28;20286;-77
2023/05/14 04:36:41;;;;;;;;;;;10.50;99.90;;;;;;5038274;28;19931;-78
2023/05/14 04:39:08;;;;;;;;;;;10.50;99.90;;;;;;5050818;28;19928;-79
2023/05/14 04:41:34;;;;;;;;;;;10.50;99.90;;;;;;5049975;28;19929;-76
2023/05/14 04:44:00;;;;;;;;;;;10.60;99.90;;;;;;5031161;28;19951;-78
2023/05/14 04:46:26;;;;;;;;;;;10.70;99.90;;;;;;5046859;28;19925;-78
2023/05/14 04:48:52;;;;;;;;;;;10.60;99.90;;;;;;5048351;28;19925;-78
2023/05/14 04:51:17;;;;;;;;;;;10.70;99.90;;;;;;5032858;28;19925;-77
2023/05/14 04:53:43;;;;;;;;;;;10.80;99.90;;;;;;5049195;28;19932;-78
2023/05/14 04:56:08;;;;;;;;;;;10.80;99.90;;;;;;5049025;28;19924;-79
2023/05/14 04:58:34;;;;;;;;;;;10.80;99.90;;;;;;5053672;28;20332;-77
2023/05/14 05:01:01;;;;;;;;;;;10.90;99.90;;;;;;5032135;28;19929;-77
2023/05/14 05:03:26;;;;;;;;;;;10.90;99.90;;;;;;5049488;28;19971;-78
2023/05/14 05:05:52;;;;;;;;;;;10.90;99.90;;;;;;5031276;28;19964;-77
2023/05/14 05:08:17;;;;;;;;;;;11.00;99.90;;;;;;5048779;28;19924;-78
2023/05/14 05:10:43;;;;;;;;;;;11.10;99.90;;;;;;5050135;28;19928;-77
2023/05/14 05:13:08;;;;;;;;;;;11.10;99.90;;;;;;5047732;28;19933;-77
2023/05/14 05:15:34;;;;;;;;;;;11.10;99.90;;;;;;5048845;28;19929;-76
2023/05/14 05:17:59;;;;;;;;;;;11.00;99.90;;;;;;5046169;28;19958;-78
2023/05/14 05:20:27;;;;;;;;;;;11.20;99.90;;;;;;5031305;28;20012;-78
2023/05/14 05:22:52;;;;;;;;;;;11.20;99.90;;;;;;5028236;28;19928;-78
2023/05/14 05:25:18;;;;;;;;;;;11.30;99.90;;;;;;5049963;28;19925;-79
2023/05/14 05:27:43;;;;;;;;;;;11.30;99.90;;;;;;5031133;28;19936;-75
2023/05/14 05:30:09;;;;;;;;;;;11.30;99.90;;;;;;5049065;28;20296;-79
2023/05/14 05:32:35;;;;;;;;;;;11.50;99.90;;;;;;5046425;28;20278;-80
2023/05/14 05:35:01;;;;;;;;;;;11.50;99.90;;;;;;5049912;28;19925;-79
2023/05/14 05:37:26;;;;;;;;;;;11.70;99.90;;;;;;5046988;28;19931;-77
2023/05/14 05:39:52;;;;;;;;;;;11.60;99.90;;;;;;5050611;28;19925;-81
2023/05/14 05:42:18;;;;;;;;;;;11.80;99.90;;;;;;5045756;28;20423;-79
2023/05/14 05:44:44;;;;;;;;;;;11.70;99.90;;;;;;5053101;28;19925;-79
2023/05/14 05:47:09;;;;;;;;;;;11.70;99.90;;;;;;5030965;28;19932;-78
2023/05/14 05:49:36;;;;;;;;;;;11.80;99.90;;;;;;5029698;28;19943;-76
2023/05/14 05:52:02;;;;;;;;;;;11.80;99.90;;;;;;5042567;28;20016;-77
2023/05/14 05:54:31;;;;;;;;;;;11.90;99.90;;;;;;5051264;28;19932;-78
2023/05/14 05:56:56;;;;;;;;;;;11.80;99.90;;;;;;5050456;28;19976;-80
2023/05/14 05:59:23;;;;;;;;;;;11.80;99.90;;;;;;5052236;28;19932;-78
2023/05/14 06:01:48;;;;;;;;;;;11.70;99.90;;;;;;5051589;28;19925;-78
2023/05/14 06:04:14;;;;;;;;;;;11.80;99.90;;;;;;5034013;28;19936;-79
2023/05/14 06:06:40;;;;;;;;;;;11.80;99.90;;;;;;5048727;28;19932;-75
2023/05/14 06:09:05;;;;;;;;;;;11.80;99.90;;;;;;5053439;28;19932;-77
2023/05/14 06:11:31;;;;;;;;;;;11.90;99.90;;;;;;5048482;28;20016;-78
2023/05/14 06:13:57;;;;;;;;;;;11.90;99.90;;;;;;5048289;28;19928;-78
2023/05/14 06:16:22;;;;;;;;;;;11.80;99.90;;;;;;5028177;28;19924;-79
2023/05/14 06:18:48;;;;;;;;;;;11.90;99.90;;;;;;5047761;28;20016;-78
2023/05/14 06:21:13;;;;;;;;;;;11.90;99.90;;;;;;5048694;28;19933;-80
2023/05/14 06:23:40;;;;;;;;;;;12.10;99.90;;;;;;5044615;28;20097;-81
2023/05/14 06:26:05;;;;;;;;;;;12.00;99.90;;;;;;5054953;28;19921;-82
2023/05/14 06:28:31;;;;;;;;;;;12.10;99.90;;;;;;5052600;28;19925;-81
2023/05/14 06:30:56;;;;;;;;;;;12.30;99.90;;;;;;5050671;28;20328;-82
2023/05/14 06:33:29;;;;;;;;;;;12.30;99.90;;;;;;5034048;28;19924;-82
2023/05/14 06:35:55;;;;;;;;;;;12.20;99.90;;;;;;5057178;28;19925;-79
2023/05/14 06:38:21;;;;;;;;;;;12.40;99.90;;;;;;5037695;28;19920;-81
2023/05/14 06:40:50;;;;;;;;;;;12.30;99.90;;;;;;5053163;28;19925;-78
2023/05/14 06:43:16;;;;;;;;;;;12.40;99.90;;;;;;5054448;28;19947;-77
2023/05/14 06:45:42;;;;;;;;;;;12.50;99.90;;;;;;5051600;28;19925;-79
2023/05/14 06:48:12;;;;;;;;;;;12.50;99.90;;;;;;5048328;28;19925;-78
2023/05/14 06:50:37;;;;;;;;;;;12.70;99.90;;;;;;5048513;28;19924;-78
2023/05/14 06:53:03;;;;;;;;;;;12.80;99.90;;;;;;5047029;28;19932;-78
2023/05/14 06:55:28;;;;;;;;;;;12.90;99.90;;;;;;5048090;28;19933;-80
2023/05/14 06:57:54;;;;;;;;;;;12.90;99.90;;;;;;5032024;28;19928;-78
2023/05/14 07:00:20;;;;;;;;;;;13.00;99.90;;;;;;5028673;28;19968;-79
2023/05/14 07:02:45;;;;;;;;;;;13.10;99.90;;;;;;5040745;28;19931;-75
2023/05/14 07:05:12;;;;;;;;;;;13.40;99.90;;;;;;5048380;28;19967;-79
2023/05/14 07:07:37;;;;;;;;;;;13.70;99.90;;;;;;5046275;28;21069;-78
2023/05/14 07:10:03;;;;;;;;;;;13.70;99.90;;;;;;5054296;28;19939;-79
2023/05/14 07:12:29;;;;;;;;;;;13.70;99.90;;;;;;5052575;28;19986;-78
2023/05/14 07:14:55;;;;;;;;;;;13.80;99.90;;;;;;5053266;28;19924;-78
2023/05/14 07:17:21;;;;;;;;;;;14.30;99.90;;;;;;5052091;28;20313;-78
2023/05/14 07:19:46;;;;;;;;;;;14.40;99.90;;;;;;5043982;28;19932;-74
2023/05/14 07:22:12;;;;;;;;;;;14.40;99.90;;;;;;5053011;28;20004;-77
2023/05/14 07:24:38;;;;;;;;;;;14.50;99.90;;;;;;5052917;28;19932;-78
2023/05/14 07:27:03;;;;;;;;;;;14.50;99.90;;;;;;5050477;28;19935;-80
2023/05/14 07:29:29;;;;;;;;;;;14.30;99.90;;;;;;5049387;28;19929;-78
2023/05/14 07:31:55;;;;;;;;;;;14.40;99.90;;;;;;5052724;28;20031;-78
2023/05/14 07:34:20;;;;;;;;;;;14.30;99.90;;;;;;5058543;28;19925;-75
2023/05/14 07:36:46;;;;;;;;;;;14.20;99.90;;;;;;5051676;28;19931;-76
2023/05/14 07:39:11;;;;;;;;;;;14.20;99.90;;;;;;5054406;28;19921;-77
2023/05/14 07:41:37;;;;;;;;;;;14.30;99.90;;;;;;5052319;28;19932;-73
2023/05/14 07:44:03;;;;;;;;;;;14.50;99.90;;;;;;5051630;28;19971;-77
2023/05/14 07:46:29;;;;;;;;;;;14.30;99.90;;;;;;5051921;28;20046;-77
2023/05/14 07:48:55;;;;;;;;;;;14.70;99.90;;;;;;5036953;28;19943;-78
2023/05/14 07:51:20;;;;;;;;;;;14.70;99.90;;;;;;5050577;28;19975;-74
2023/05/14 07:53:46;;;;;;;;;;;14.80;99.90;;;;;;5050610;28;19928;-78
2023/05/14 07:56:11;;;;;;;;;;;14.80;99.90;;;;;;5050900;28;19928;-75
2023/05/14 07:58:37;;;;;;;;;;;14.50;99.90;;;;;;5041076;28;20030;-75
2023/05/14 08:01:05;;;;;;;;;;;14.50;99.90;;;;;;5048971;28;19925;-75
2023/05/14 08:03:31;;;;;;;;;;;14.60;99.90;;;;;;5049864;28;19932;-73
2023/05/14 08:05:57;;;;;;;;;;;14.80;99.90;;;;;;5048284;28;20688;-73
2023/05/14 08:08:22;;;;;;;;;;;14.90;99.90;;;;;;5043247;28;19925;-73
2023/05/14 08:10:48;;;;;;;;;;;14.90;99.90;;;;;;5026958;28;19948;-73
2023/05/14 08:13:13;;;;;;;;;;;14.80;99.90;;;;;;5029455;28;19952;-76
2023/05/14 08:15:39;;;;;;;;;;;14.90;99.90;;;;;;5045477;28;19977;-76
2023/05/14 08:18:05;;;;;;;;;;;15.10;99.90;;;;;;5050661;28;19968;-72
2023/05/14 08:20:30;;;;;;;;;;;15.00;99.90;;;;;;5050560;28;20447;-76
2023/05/14 08:22:56;;;;;;;;;;;15.00;99.90;;;;;;5033285;28;19955;-75
2023/05/14 08:25:22;;;;;;;;;;;15.20;99.90;;;;;;5049149;28;19931;-74
2023/05/14 08:27:48;;;;;;;;;;;15.50;99.90;;;;;;5032697;28;19924;-77
2023/05/14 08:30:14;;;;;;;;;;;15.40;99.90;;;;;;5048527;28;19929;-75
2023/05/14 08:32:39;;;;;;;;;;;15.20;99.90;;;;;;5048808;28;19929;-75
2023/05/14 08:35:05;;;;;;;;;;;15.10;99.90;;;;;;5049008;28;20308;-77
2023/05/14 08:37:31;;;;;;;;;;;15.00;99.90;;;;;;5048838;28;20316;-73
2023/05/14 08:39:56;;;;;;;;;;;15.20;99.90;;;;;;5032350;28;19925;-74
2023/05/14 08:42:23;;;;;;;;;;;15.20;99.90;;;;;;5031808;28;19936;-75
2023/05/14 08:44:52;;;;;;;;;;;15.30;99.90;;;;;;5048765;28;20011;-74
2023/05/14 08:47:20;;;;;;;;;;;15.40;99.90;;;;;;5049026;28;20380;-75
2023/05/14 08:49:46;;;;;;;;;;;15.40;99.90;;;;;;5032862;28;19974;-75
2023/05/14 08:52:12;;;;;;;;;;;15.00;99.90;;;;;;5048706;28;19925;-74
2023/05/14 08:54:37;;;;;;;;;;;15.20;99.90;;;;;;5049069;28;19931;-74
2023/05/14 08:57:03;;;;;;;;;;;15.30;99.90;;;;;;5050228;28;20008;-73
2023/05/14 08:59:29;;;;;;;;;;;15.50;99.90;;;;;;5048620;28;19925;-74
2023/05/14 09:01:55;;;;;;;;;;;15.60;99.90;;;;;;5049138;28;19925;-75
2023/05/14 09:04:22;;;;;;;;;;;15.80;99.90;;;;;;5046993;28;19975;-73
2023/05/14 09:06:48;;;;;;;;;;;15.70;99.90;;;;;;5049644;28;19924;-75
2023/05/14 09:09:14;;;;;;;;;;;15.90;99.90;;;;;;5050411;28;19962;-76
2023/05/14 09:11:41;;;;;;;;;;;16.10;99.90;;;;;;5049358;28;19975;-76
2023/05/14 09:14:06;;;;;;;;;;;16.20;99.90;;;;;;5043175;28;19929;-74
2023/05/14 09:16:32;;;;;;;;;;;16.40;99.90;;;;;;5047818;28;19950;-74
2023/05/14 09:18:58;;;;;;;;;;;16.20;99.90;;;;;;5049147;28;20051;-74
2023/05/14 09:21:24;;;;;;;;;;;16.50;99.90;;;;;;5048899;28;20023;-73
2023/05/14 09:23:52;;;;;;;;;;;16.50;99.90;;;;;;5048225;28;19986;-74
2023/05/14 09:26:21;;;;;;;;;;;16.40;99.90;;;;;;5047959;28;19925;-74
2023/05/14 09:28:47;;;;;;;;;;;16.70;99.90;;;;;;5040518;28;20337;-76
2023/05/14 09:31:12;;;;;;;;;;;16.50;99.90;;;;;;5048676;28;19927;-76
2023/05/14 09:33:38;;;;;;;;;;;16.70;99.90;;;;;;5048926;28;19925;-73
2023/05/14 09:36:03;;;;;;;;;;;16.80;99.90;;;;;;5048713;28;19929;-76
2023/05/14 09:38:29;;;;;;;;;;;16.60;99.90;;;;;;5048196;28;19948;-75
2023/05/14 09:40:56;;;;;;;;;;;17.00;99.90;;;;;;5048410;28;19932;-74
2023/05/14 09:43:21;;;;;;;;;;;16.90;99.90;;;;;;5048421;28;19932;-74
2023/05/14 09:45:47;;;;;;;;;;;16.80;99.90;;;;;;5044908;28;19924;-74
2023/05/14 09:48:12;;;;;;;;;;;16.80;99.90;;;;;;5048729;28;20024;-77
2023/05/14 09:50:41;;;;;;;;;;;16.90;99.90;;;;;;5047435;28;19956;-75
2023/05/14 09:53:07;;;;;;;;;;;16.90;99.90;;;;;;5045962;28;19929;-75
2023/05/14 09:55:34;;;;;;;;;;;16.90;99.90;;;;;;5048757;28;20043;-75
2023/05/14 09:57:59;;;;;;;;;;;17.50;99.90;;;;;;5030829;28;19932;-75
2023/05/14 10:00:25;;;;;;;;;;;17.50;99.90;;;;;;5030167;28;19928;-74
2023/05/14 10:02:52;;;;;;;;;;;17.60;99.90;;;;;;5048723;28;19928;-77
2023/05/14 10:05:18;;;;;;;;;;;17.60;99.90;;;;;;5046482;28;20296;-74
2023/05/14 10:07:46;;;;;;;;;;;17.20;99.90;;;;;;5044402;28;20419;-75
2023/05/14 10:10:17;;;;;;;;;;;17.40;99.90;;;;;;5048932;28;19929;-78
2023/05/14 10:12:45;;;;;;;;;;;17.50;99.90;;;;;;5048088;28;19931;-75
2023/05/14 10:15:13;;;;;;;;;;;17.10;99.90;;;;;;5048477;28;20408;-74
2023/05/14 10:17:39;;;;;;;;;;;17.60;99.90;;;;;;5030107;28;19925;-74
2023/05/14 10:20:07;;;;;;;;;;;17.80;99.90;;;;;;5048647;28;20389;-75
2023/05/14 10:22:33;;;;;;;;;;;17.70;99.90;;;;;;5048237;28;20050;-75
2023/05/14 10:25:00;;;;;;;;;;;17.40;99.90;;;;;;5048613;28;19978;-75
2023/05/14 10:27:26;;;;;;;;;;;17.70;99.90;;;;;;5046029;28;19925;-75
2023/05/14 10:29:55;;;;;;;;;;;17.60;99.90;;;;;;5048899;28;19940;-74
2023/05/14 10:32:23;;;;;;;;;;;17.60;99.90;;;;;;5046963;28;20315;-75
2023/05/14 10:34:48;;;;;;;;;;;17.50;99.90;;;;;;5048424;28;19931;-76
2023/05/14 10:37:15;;;;;;;;;;;17.70;99.90;;;;;;5028790;28;19928;-73
2023/05/14 10:39:44;;;;;;;;;;;17.90;99.90;;;;;;5048280;28;20392;-74
2023/05/14 10:42:20;;;;;;;;;;;18.20;99.90;;;;;;5048844;28;19925;-75
2023/05/14 10:44:50;;;;;;;;;;;18.00;99.90;;;;;;5049840;28;19924;-76
2023/05/14 10:47:16;;;;;;;;;;;18.10;99.90;;;;;;5050532;28;20373;-75
2023/05/14 10:49:43;;;;;;;;;;;17.90;99.90;;;;;;5034772;28;19979;-75
2023/05/14 10:52:09;;;;;;;;;;;18.10;99.90;;;;;;5052173;28;19932;-74
2023/05/14 10:54:35;;;;;;;;;;;18.30;99.90;;;;;;5051031;28;20385;-74
2023/05/14 10:57:01;;;;;;;;;;;17.90;99.90;;;;;;5051169;28;19932;-74
2023/05/14 10:59:27;;;;;;;;;;;18.00;99.90;;;;;;5050581;28;19929;-77
2023/05/14 11:01:52;;;;;;;;;;;18.00;99.90;;;;;;5048887;28;19947;-75
2023/05/14 11:04:21;;;;;;;;;;;18.30;99.90;;;;;;5051862;28;20005;-75
2023/05/14 11:06:47;;;;;;;;;;;18.60;99.90;;;;;;5052719;28;20007;-77
2023/05/14 11:09:13;;;;;;;;;;;18.40;99.90;;;;;;5050902;28;20013;-77
2023/05/14 11:11:40;;;;;;;;;;;17.90;99.90;;;;;;5052001;28;20338;-75
2023/05/14 11:14:06;;;;;;;;;;;18.20;99.90;;;;;;5050998;28;20594;-77
2023/05/14 11:16:32;;;;;;;;;;;18.40;99.90;;;;;;5051402;28;19932;-74
2023/05/14 11:19:02;;;;;;;;;;;18.20;99.90;;;;;;5051571;28;20456;-80
2023/05/14 11:21:28;;;;;;;;;;;18.20;99.90;;;;;;5052464;28;19925;-79
2023/05/14 11:23:55;;;;;;;;;;;18.70;99.90;;;;;;5051799;28;20000;-79
2023/05/14 11:26:22;;;;;;;;;;;18.80;99.90;;;;;;5051623;28;19932;-75
2023/05/14 11:28:48;;;;;;;;;;;18.50;99.90;;;;;;5051966;28;20304;-81
2023/05/14 11:31:14;;;;;;;;;;;18.50;99.90;;;;;;5051690;28;19924;-80
2023/05/14 11:33:39;;;;;;;;;;;18.50;99.90;;;;;;5053478;28;19931;-79
2023/05/14 11:36:05;;;;;;;;;;;18.50;99.90;;;;;;5052775;28;19966;-78
2023/05/14 11:38:30;;;;;;;;;;;18.90;99.90;;;;;;5051819;28;19932;-76
2023/05/14 11:40:57;;;;;;;;;;;19.30;99.90;;;;;;5052773;28;19924;-78
2023/05/14 11:43:23;;;;;;;;;;;19.40;99.90;;;;;;5051696;28;19924;-76
2023/05/14 11:45:51;;;;;;;;;;;19.40;99.90;;;;;;5037850;28;19925;-79
2023/05/14 11:48:17;;;;;;;;;;;19.50;99.90;;;;;;5051749;28;20344;-79
2023/05/14 11:50:47;;;;;;;;;;;19.60;99.90;;;;;;5051396;28;19974;-76
2023/05/14 11:53:17;;;;;;;;;;;19.20;99.90;;;;;;5042140;28;19925;-77
2023/05/14 11:55:42;;;;;;;;;;;19.50;99.90;;;;;;5050818;28;19925;-77
2023/05/14 11:58:08;;;;;;;;;;;19.60;99.90;;;;;;5050911;28;19970;-77
2023/05/14 12:00:33;;;;;;;;;;;19.80;99.90;;;;;;5050026;28;20448;-77
2023/05/14 12:02:59;;;;;;;;;;;19.90;99.90;;;;;;5050742;28;20222;-78
2023/05/14 12:05:24;;;;;;;;;;;20.10;99.90;;;;;;5050093;28;19991;-77
2023/05/14 12:07:50;;;;;;;;;;;20.20;99.90;;;;;;5049032;28;19931;-79
2023/05/14 12:10:16;;;;;;;;;;;20.20;99.90;;;;;;5049941;28;19932;-78
2023/05/14 12:12:44;;;;;;;;;;;19.90;99.90;;;;;;5051735;28;20389;-79
2023/05/14 12:15:11;;;;;;;;;;;20.20;99.90;;;;;;5049013;28;19925;-78
2023/05/14 12:17:36;;;;;;;;;;;20.20;99.90;;;;;;5032373;28;19929;-78
2023/05/14 12:20:03;;;;;;;;;;;20.20;99.90;;;;;;5050813;28;19932;-79
2023/05/14 12:22:28;;;;;;;;;;;20.40;99.90;;;;;;5051879;28;20027;-79
2023/05/14 12:24:55;;;;;;;;;;;20.20;99.90;;;;;;5051266;28;20398;-78
2023/05/14 12:27:27;;;;;;;;;;;20.50;99.90;;;;;;5052072;28;19925;-78
2023/05/14 12:30:03;;;;;;;;;;;20.30;99.90;;;;;;5052969;28;20480;-80
2023/05/14 12:32:32;;;;;;;;;;;20.20;99.90;;;;;;5050046;28;19925;-78
2023/05/14 12:34:58;;;;;;;;;;;20.40;99.90;;;;;;5037454;28;19925;-77
2023/05/14 12:37:23;;;;;;;;;;;20.30;99.90;;;;;;5050305;28;19932;-76
2023/05/14 12:39:49;;;;;;;;;;;20.50;99.90;;;;;;5050319;28;19929;-79
2023/05/14 12:42:15;;;;;;;;;;;20.00;99.90;;;;;;5052548;28;20384;-78
2023/05/14 12:44:40;;;;;;;;;;;20.20;99.90;;;;;;5050587;28;19991;-78
2023/05/14 12:47:06;;;;;;;;;;;20.30;99.90;;;;;;5050390;28;20342;-77
2023/05/14 12:49:32;;;;;;;;;;;20.70;99.90;;;;;;5051889;28;20274;-77
2023/05/14 12:51:57;;;;;;;;;;;20.80;99.90;;;;;;5051934;28;19925;-77
2023/05/14 12:54:23;;;;;;;;;;;20.40;99.90;;;;;;5053367;28;19925;-78
2023/05/14 12:56:49;;;;;;;;;;;20.40;99.90;;;;;;5049921;28;20027;-77
2023/05/14 12:59:14;;;;;;;;;;;20.40;99.90;;;;;;5050082;28;19975;-77
2023/05/14 13:01:40;;;;;;;;;;;20.40;99.90;;;;;;5049341;28;19945;-77
2023/05/14 13:04:07;;;;;;;;;;;20.40;99.90;;;;;;5049712;28;20290;-77
2023/05/14 13:06:33;;;;;;;;;;;20.30;99.90;;;;;;5048988;28;20340;-77
2023/05/14 13:09:01;;;;;;;;;;;20.50;99.90;;;;;;5049346;28;19929;-77
2023/05/14 13:11:29;;;;;;;;;;;20.60;99.90;;;;;;5024306;28;19929;-77
2023/05/14 13:13:54;;;;;;;;;;;20.60;99.90;;;;;;5008561;28;19934;-77
2023/05/14 13:16:20;;;;;;;;;;;20.60;99.90;;;;;;5009941;28;19925;-77
2023/05/14 13:18:45;;;;;;;;;;;20.90;99.90;;;;;;5024407;28;19922;-77
2023/05/14 13:21:11;;;;;;;;;;;21.00;99.90;;;;;;5010149;28;19925;-77
2023/05/14 13:23:37;;;;;;;;;;;20.70;99.90;;;;;;5009765;28;19936;-77
2023/05/14 13:26:02;;;;;;;;;;;20.90;99.90;;;;;;5008470;28;19921;-77
2023/05/14 13:28:28;;;;;;;;;;;20.90;99.90;;;;;;5008787;28;20381;-78
2023/05/14 13:31:07;;;;;;;;;;;21.20;99.90;;;;;;5008675;28;19932;-77
2023/05/14 13:33:36;;;;;;;;;;;20.80;99.90;;;;;;5008051;28;19937;-77
2023/05/14 13:36:20;;;;;;;;;;;20.90;99.90;;;;;;5010167;28;20298;-76
2023/05/14 13:38:46;;;;;;;;;;;21.00;99.90;;;;;;5009189;28;19932;-77
2023/05/14 13:41:12;;;;;;;;;;;20.60;99.90;;;;;;5009602;28;20246;-76
2023/05/14 13:43:37;;;;;;;;;;;20.70;99.90;;;;;;5008830;28;19983;-78
2023/05/14 13:46:03;;;;;;;;;;;20.80;99.90;;;;;;5007344;28;20414;-77
2023/05/14 13:48:32;;;;;;;;;;;20.60;99.90;;;;;;5008719;28;20355;-78
2023/05/14 13:50:58;;;;;;;;;;;20.90;99.90;;;;;;5009036;28;20266;-77
2023/05/14 13:53:24;;;;;;;;;;;20.90;99.90;;;;;;5009026;28;19926;-77
2023/05/14 13:55:55;;;;;;;;;;;21.20;99.90;;;;;;5005744;28;20016;-77
2023/05/14 13:58:21;;;;;;;;;;;21.10;99.90;;;;;;5008342;28;19929;-77
2023/05/14 14:00:46;;;;;;;;;;;20.80;99.90;;;;;;5021397;28;20397;-78
2023/05/14 14:03:12;;;;;;;;;;;21.00;99.90;;;;;;5009911;28;19925;-77
2023/05/14 14:05:37;;;;;;;;;;;21.10;99.90;;;;;;5008280;28;20020;-76
2023/05/14 14:08:05;;;;;;;;;;;21.10;99.90;;;;;;5006873;28;20216;-77
2023/05/14 14:10:30;;;;;;;;;;;21.10;99.90;;;;;;5009136;28;19925;-76